sensor_id;sensor_type;location;lat;lon;timestamp;temperature;humidity
41939;DHT22;23057;48.554;14.454;2023-02-26T00:02:13;-1.70;99.90
41939;DHT22;23057;48.554;14.454;2023-02-26T00:04:43;-1.70;99.90
41939;DHT22;23057;48.554;14.454;2023-02-26T00:07:14;-1.80;99.90
41939;DHT22;23057;48.554;14.454;2023-02-26T00:09:45;-1.70;99.90
41939;DHT22;23057;48.554;14.454;2023-02-26T00:12:15;-1.70;99.90
41939;DHT22;23057;48.554;14.454;2023-02-26T00:14:47;-1.80;99.90
41939;DHT22;23057;48.554;14.454;2023-02-26T00:20:29;-1.70;99.90
41939;DHT22;23057;48.554;14.454;2023-02-26T00:23:00;-1.70;99.90
41939;DHT22;23057;48.554;14.454;2023-02-26T00:25:31;-1.80;99.90
41939;DHT22;23057;48.554;14.454;2023-02-26T00:28:02;-1.80;99.90
41939;DHT22;23057;48.554;14.454;2023-02-26T00:30:33;-1.80;99.90
41939;DHT22;23057;48.554;14.454;2023-02-26T00:33:04;-1.90;99.90
41939;DHT22;23057;48.554;14.454;2023-02-26T00:35:36;-1.90;99.90
41939;DHT22;23057;48.554;14.454;2023-02-26T00:38:10;-1.90;99.90
41939;DHT22;23057;48.554;14.454;2023-02-26T00:40:49;-1.80;99.90
41939;DHT22;23057;48.554;14.454;2023-02-26T00:43:23;-1.90;99.90
41939;DHT22;23057;48.554;14.454;2023-02-26T00:52:04;-2.10;99.90
41939;DHT22;23057;48.554;14.454;2023-02-26T00:54:43;-2.10;99.90
41939;DHT22;23057;48.554;14.454;2023-02-26T00:57:14;-2.10;99.90
41939;DHT22;23057;48.554;14.454;2023-02-26T00:59:45;-2.10;99.90
41939;DHT22;23057;48.554;14.454;2023-02-26T01:02:16;-2.20;99.90
41939;DHT22;23057;48.554;14.454;2023-02-26T01:04:46;-2.20;99.90
41939;DHT22;23057;48.554;14.454;2023-02-26T01:07:19;-2.20;99.90
41939;DHT22;23057;48.554;14.454;2023-02-26T01:09:55;-2.20;99.90
41939;DHT22;23057;48.554;14.454;2023-02-26T01:12:26;-2.30;99.90
41939;DHT22;23057;48.554;14.454;2023-02-26T01:14:57;-2.20;99.90
41939;DHT22;23057;48.554;14.454;2023-02-26T01:20:20;-2.20;99.90
41939;DHT22;23057;48.554;14.454;2023-02-26T01:23:04;-2.30;99.90
41939;DHT22;23057;48.554;14.454;2023-02-26T01:28:58;-2.30;99.90
41939;DHT22;23057;48.554;14.454;2023-02-26T01:31:46;-2.30;99.90
41939;DHT22;23057;48.554;14.454;2023-02-26T01:34:38;-2.30;99.90
41939;DHT22;23057;48.554;14.454;2023-02-26T01:37:40;-2.40;99.90
41939;DHT22;23057;48.554;14.454;2023-02-26T01:49:39;-2.40;99.90
41939;DHT22;23057;48.554;14.454;2023-02-26T01:55:04;-2.40;99.90
41939;DHT22;23057;48.554;14.454;2023-02-26T01:57:35;-2.40;99.90
41939;DHT22;23057;48.554;14.454;2023-02-26T02:00:07;-2.50;99.90
41939;DHT22;23057;48.554;14.454;2023-02-26T02:02:38;-2.40;99.90
41939;DHT22;23057;48.554;14.454;2023-02-26T02:05:14;-2.40;99.90
41939;DHT22;23057;48.554;14.454;2023-02-26T02:07:54;-2.40;99.90
41939;DHT22;23057;48.554;14.454;2023-02-26T02:10:26;-2.40;99.90
41939;DHT22;23057;48.554;14.454;2023-02-26T02:16:01;-2.50;99.90
41939;DHT22;23057;48.554;14.454;2023-02-26T02:23:04;-2.50;99.90
41939;DHT22;23057;48.554;14.454;2023-02-26T02:31:16;-2.60;99.90
41939;DHT22;23057;48.554;14.454;2023-02-26T02:34:18;-2.50;99.90
41939;DHT22;23057;48.554;14.454;2023-02-26T02:42:53;-2.50;99.90
41939;DHT22;23057;48.554;14.454;2023-02-26T02:45:44;-2.50;99.90
41939;DHT22;23057;48.554;14.454;2023-02-26T02:48:22;-2.50;99.90
41939;DHT22;23057;48.554;14.454;2023-02-26T02:50:59;-2.50;99.90
41939;DHT22;23057;48.554;14.454;2023-02-26T02:53:38;-2.50;99.90
41939;DHT22;23057;48.554;14.454;2023-02-26T02:56:20;-2.50;99.90
41939;DHT22;23057;48.554;14.454;2023-02-26T02:59:41;-2.40;99.90
41939;DHT22;23057;48.554;14.454;2023-02-26T03:05:02;-2.40;99.90
41939;DHT22;23057;48.554;14.454;2023-02-26T03:07:35;-2.50;99.90
41939;DHT22;23057;48.554;14.454;2023-02-26T03:10:16;-2.50;99.90
41939;DHT22;23057;48.554;14.454;2023-02-26T03:12:48;-2.50;99.90
41939;DHT22;23057;48.554;14.454;2023-02-26T03:15:22;-2.60;99.90
41939;DHT22;23057;48.554;14.454;2023-02-26T03:18:16;-2.60;99.90
41939;DHT22;23057;48.554;14.454;2023-02-26T03:21:56;-2.60;99.90
41939;DHT22;23057;48.554;14.454;2023-02-26T03:27:48;-2.70;99.90
41939;DHT22;23057;48.554;14.454;2023-02-26T03:30:49;-2.70;99.90
41939;DHT22;23057;48.554;14.454;2023-02-26T03:36:36;-2.70;99.90
41939;DHT22;23057;48.554;14.454;2023-02-26T03:39:24;-2.70;99.90
41939;DHT22;23057;48.554;14.454;2023-02-26T03:42:08;-2.70;99.90
41939;DHT22;23057;48.554;14.454;2023-02-26T03:45:00;-2.70;99.90
41939;DHT22;23057;48.554;14.454;2023-02-26T03:47:39;-2.70;99.90
41939;DHT22;23057;48.554;14.454;2023-02-26T03:50:16;-2.70;99.90
41939;DHT22;23057;48.554;14.454;2023-02-26T03:52:58;-2.70;99.90
41939;DHT22;23057;48.554;14.454;2023-02-26T03:55:37;-2.70;99.90
41939;DHT22;23057;48.554;14.454;2023-02-26T03:58:19;-2.60;99.90
41939;DHT22;23057;48.554;14.454;2023-02-26T04:00:52;-2.60;99.90
41939;DHT22;23057;48.554;14.454;2023-02-26T04:03:37;-2.60;99.90
41939;DHT22;23057;48.554;14.454;2023-02-26T04:06:16;-2.60;99.90
41939;DHT22;23057;48.554;14.454;2023-02-26T04:08:49;-2.60;99.90
41939;DHT22;23057;48.554;14.454;2023-02-26T04:11:21;-2.60;99.90
41939;DHT22;23057;48.554;14.454;2023-02-26T04:13:54;-2.60;99.90
41939;DHT22;23057;48.554;14.454;2023-02-26T04:16:25;-2.60;99.90
41939;DHT22;23057;48.554;14.454;2023-02-26T04:18:56;-2.60;99.90
41939;DHT22;23057;48.554;14.454;2023-02-26T04:21:27;-2.60;99.90
41939;DHT22;23057;48.554;14.454;2023-02-26T04:23:58;-2.60;99.90
41939;DHT22;23057;48.554;14.454;2023-02-26T04:26:28;-2.60;99.90
41939;DHT22;23057;48.554;14.454;2023-02-26T04:28:59;-2.60;99.90
41939;DHT22;23057;48.554;14.454;2023-02-26T04:31:30;-2.60;99.90
41939;DHT22;23057;48.554;14.454;2023-02-26T04:34:01;-2.60;99.90
41939;DHT22;23057;48.554;14.454;2023-02-26T04:36:32;-2.60;99.90
41939;DHT22;23057;48.554;14.454;2023-02-26T04:39:03;-2.60;99.90
41939;DHT22;23057;48.554;14.454;2023-02-26T04:41:33;-2.60;99.90
41939;DHT22;23057;48.554;14.454;2023-02-26T04:44:04;-2.60;99.90
41939;DHT22;23057;48.554;14.454;2023-02-26T04:46:35;-2.50;99.90
41939;DHT22;23057;48.554;14.454;2023-02-26T04:49:06;-2.60;99.90
41939;DHT22;23057;48.554;14.454;2023-02-26T04:51:37;-2.60;99.90
41939;DHT22;23057;48.554;14.454;2023-02-26T04:54:08;-2.60;99.90
41939;DHT22;23057;48.554;14.454;2023-02-26T04:56:38;-2.60;99.90
41939;DHT22;23057;48.554;14.454;2023-02-26T04:59:09;-2.60;99.90
41939;DHT22;23057;48.554;14.454;2023-02-26T05:01:40;-2.50;99.90
41939;DHT22;23057;48.554;14.454;2023-02-26T05:04:11;-2.50;99.90
41939;DHT22;23057;48.554;14.454;2023-02-26T05:06:42;-2.60;99.90
41939;DHT22;23057;48.554;14.454;2023-02-26T05:09:12;-2.60;99.90
41939;DHT22;23057;48.554;14.454;2023-02-26T05:11:43;-2.60;99.90
41939;DHT22;23057;48.554;14.454;2023-02-26T05:14:14;-2.60;99.90
41939;DHT22;23057;48.554;14.454;2023-02-26T05:16:46;-2.60;99.90
41939;DHT22;23057;48.554;14.454;2023-02-26T05:19:16;-2.60;99.90
41939;DHT22;23057;48.554;14.454;2023-02-26T05:21:47;-2.60;99.90
41939;DHT22;23057;48.554;14.454;2023-02-26T05:24:18;-2.60;99.90
41939;DHT22;23057;48.554;14.454;2023-02-26T05:26:49;-2.60;99.90
41939;DHT22;23057;48.554;14.454;2023-02-26T05:29:20;-2.50;99.90
41939;DHT22;23057;48.554;14.454;2023-02-26T05:31:50;-2.60;99.90
41939;DHT22;23057;48.554;14.454;2023-02-26T05:34:21;-2.60;99.90
41939;DHT22;23057;48.554;14.454;2023-02-26T05:36:52;-2.60;99.90
41939;DHT22;23057;48.554;14.454;2023-02-26T05:39:23;-2.60;99.90
41939;DHT22;23057;48.554;14.454;2023-02-26T05:41:53;-2.60;99.90
41939;DHT22;23057;48.554;14.454;2023-02-26T05:44:26;-2.60;99.90
41939;DHT22;23057;48.554;14.454;2023-02-26T05:46:57;-2.60;99.90
41939;DHT22;23057;48.554;14.454;2023-02-26T05:49:27;-2.60;99.90
41939;DHT22;23057;48.554;14.454;2023-02-26T05:51:58;-2.60;99.90
41939;DHT22;23057;48.554;14.454;2023-02-26T05:54:29;-2.60;99.90
41939;DHT22;23057;48.554;14.454;2023-02-26T05:57:00;-2.50;99.90
41939;DHT22;23057;48.554;14.454;2023-02-26T05:59:31;-2.50;99.90
41939;DHT22;23057;48.554;14.454;2023-02-26T06:02:01;-2.60;99.90
41939;DHT22;23057;48.554;14.454;2023-02-26T06:04:32;-2.60;99.90
41939;DHT22;23057;48.554;14.454;2023-02-26T06:07:03;-2.50;99.90
41939;DHT22;23057;48.554;14.454;2023-02-26T06:09:34;-2.60;99.90
41939;DHT22;23057;48.554;14.454;2023-02-26T06:12:05;-2.60;99.90
41939;DHT22;23057;48.554;14.454;2023-02-26T06:14:37;-2.60;99.90
41939;DHT22;23057;48.554;14.454;2023-02-26T06:17:07;-2.50;99.90
41939;DHT22;23057;48.554;14.454;2023-02-26T06:19:38;-2.50;99.90
41939;DHT22;23057;48.554;14.454;2023-02-26T06:22:09;-2.50;99.90
41939;DHT22;23057;48.554;14.454;2023-02-26T06:24:40;-2.50;99.90
41939;DHT22;23057;48.554;14.454;2023-02-26T06:27:10;-2.40;99.90
41939;DHT22;23057;48.554;14.454;2023-02-26T06:29:41;-2.40;99.90
41939;DHT22;23057;48.554;14.454;2023-02-26T06:32:12;-2.40;99.90
41939;DHT22;23057;48.554;14.454;2023-02-26T06:34:43;-2.40;99.90
41939;DHT22;23057;48.554;14.454;2023-02-26T06:37:14;-2.60;99.90
41939;DHT22;23057;48.554;14.454;2023-02-26T06:39:45;-2.50;99.90
41939;DHT22;23057;48.554;14.454;2023-02-26T06:42:16;-2.50;99.90
41939;DHT22;23057;48.554;14.454;2023-02-26T06:44:47;-2.50;99.90
41939;DHT22;23057;48.554;14.454;2023-02-26T06:47:17;-2.50;99.90
41939;DHT22;23057;48.554;14.454;2023-02-26T06:49:48;-2.50;99.90
41939;DHT22;23057;48.554;14.454;2023-02-26T06:52:19;-2.50;99.90
41939;DHT22;23057;48.554;14.454;2023-02-26T06:54:50;-2.50;99.90
41939;DHT22;23057;48.554;14.454;2023-02-26T06:57:20;-2.40;99.90
41939;DHT22;23057;48.554;14.454;2023-02-26T06:59:51;-2.40;99.90
41939;DHT22;23057;48.554;14.454;2023-02-26T07:02:22;-2.40;99.90
41939;DHT22;23057;48.554;14.454;2023-02-26T07:04:54;-2.40;99.90
41939;DHT22;23057;48.554;14.454;2023-02-26T07:07:24;-2.50;99.90
41939;DHT22;23057;48.554;14.454;2023-02-26T07:09:55;-2.40;99.90
41939;DHT22;23057;48.554;14.454;2023-02-26T07:12:26;-2.40;99.90
41939;DHT22;23057;48.554;14.454;2023-02-26T07:14:57;-2.40;99.90
41939;DHT22;23057;48.554;14.454;2023-02-26T07:17:27;-2.40;99.90
41939;DHT22;23057;48.554;14.454;2023-02-26T07:19:58;-2.40;99.90
41939;DHT22;23057;48.554;14.454;2023-02-26T07:22:35;-2.50;99.90
41939;DHT22;23057;48.554;14.454;2023-02-26T07:25:07;-2.30;99.90
41939;DHT22;23057;48.554;14.454;2023-02-26T07:27:38;-2.30;99.90
41939;DHT22;23057;48.554;14.454;2023-02-26T07:30:09;-2.30;99.90
41939;DHT22;23057;48.554;14.454;2023-02-26T07:32:41;-2.20;99.90
41939;DHT22;23057;48.554;14.454;2023-02-26T07:35:12;-2.20;99.90
41939;DHT22;23057;48.554;14.454;2023-02-26T07:37:43;-2.10;99.90
41939;DHT22;23057;48.554;14.454;2023-02-26T07:40:13;-2.20;99.90
41939;DHT22;23057;48.554;14.454;2023-02-26T07:42:45;-2.20;99.90
41939;DHT22;23057;48.554;14.454;2023-02-26T07:45:15;-2.00;99.90
41939;DHT22;23057;48.554;14.454;2023-02-26T07:47:51;-2.10;99.90
41939;DHT22;23057;48.554;14.454;2023-02-26T07:50:22;-2.10;99.90
41939;DHT22;23057;48.554;14.454;2023-02-26T07:52:54;-2.10;99.90
41939;DHT22;23057;48.554;14.454;2023-02-26T07:55:25;-2.20;99.90
41939;DHT22;23057;48.554;14.454;2023-02-26T07:57:56;-2.20;99.90
41939;DHT22;23057;48.554;14.454;2023-02-26T08:00:27;-2.30;99.90
41939;DHT22;23057;48.554;14.454;2023-02-26T08:02:58;-2.10;99.90
41939;DHT22;23057;48.554;14.454;2023-02-26T08:05:29;-1.50;99.90
41939;DHT22;23057;48.554;14.454;2023-02-26T08:08:00;-1.10;99.90
41939;DHT22;23057;48.554;14.454;2023-02-26T08:10:32;-1.80;99.90
41939;DHT22;23057;48.554;14.454;2023-02-26T08:13:03;-2.00;99.90
41939;DHT22;23057;48.554;14.454;2023-02-26T08:15:34;-2.00;99.90
41939;DHT22;23057;48.554;14.454;2023-02-26T08:18:04;-2.10;99.90
41939;DHT22;23057;48.554;14.454;2023-02-26T08:20:35;-2.10;99.90
41939;DHT22;23057;48.554;14.454;2023-02-26T08:23:06;-2.20;99.90
41939;DHT22;23057;48.554;14.454;2023-02-26T08:25:37;-2.20;99.90
41939;DHT22;23057;48.554;14.454;2023-02-26T08:28:08;-2.10;99.90
41939;DHT22;23057;48.554;14.454;2023-02-26T08:30:39;-2.20;99.90
41939;DHT22;23057;48.554;14.454;2023-02-26T08:33:09;-2.00;99.90
41939;DHT22;23057;48.554;14.454;2023-02-26T08:35:40;-2.10;99.90
41939;DHT22;23057;48.554;14.454;2023-02-26T08:38:11;-1.80;99.90
41939;DHT22;23057;48.554;14.454;2023-02-26T08:40:42;-2.10;99.90
41939;DHT22;23057;48.554;14.454;2023-02-26T08:43:13;-2.00;99.90
41939;DHT22;23057;48.554;14.454;2023-02-26T08:45:44;-2.10;99.90
41939;DHT22;23057;48.554;14.454;2023-02-26T08:48:15;-2.00;99.90
41939;DHT22;23057;48.554;14.454;2023-02-26T08:50:46;-2.00;99.90
41939;DHT22;23057;48.554;14.454;2023-02-26T08:53:17;-1.80;99.90
41939;DHT22;23057;48.554;14.454;2023-02-26T08:55:49;-1.80;99.90
41939;DHT22;23057;48.554;14.454;2023-02-26T08:58:21;-2.00;99.90
41939;DHT22;23057;48.554;14.454;2023-02-26T09:00:52;-1.90;99.90
41939;DHT22;23057;48.554;14.454;2023-02-26T09:03:23;-1.70;99.90
41939;DHT22;23057;48.554;14.454;2023-02-26T09:05:53;-1.70;99.90
41939;DHT22;23057;48.554;14.454;2023-02-26T09:08:24;-1.50;99.90
41939;DHT22;23057;48.554;14.454;2023-02-26T09:10:58;-1.50;99.90
41939;DHT22;23057;48.554;14.454;2023-02-26T09:13:30;-1.60;99.90
41939;DHT22;23057;48.554;14.454;2023-02-26T09:16:01;-1.70;99.90
41939;DHT22;23057;48.554;14.454;2023-02-26T09:18:32;-1.60;99.90
41939;DHT22;23057;48.554;14.454;2023-02-26T09:21:03;-1.50;99.90
41939;DHT22;23057;48.554;14.454;2023-02-26T09:23:35;-1.40;99.90
41939;DHT22;23057;48.554;14.454;2023-02-26T09:26:05;-1.00;99.90
41939;DHT22;23057;48.554;14.454;2023-02-26T09:28:38;-0.80;99.90
41939;DHT22;23057;48.554;14.454;2023-02-26T09:31:08;-1.00;99.90
41939;DHT22;23057;48.554;14.454;2023-02-26T09:33:39;-0.90;99.90
41939;DHT22;23057;48.554;14.454;2023-02-26T09:36:10;-1.00;99.90
41939;DHT22;23057;48.554;14.454;2023-02-26T09:38:41;-1.20;54.30
41939;DHT22;23057;48.554;14.454;2023-02-26T09:41:18;-1.10;57.80
41939;DHT22;23057;48.554;14.454;2023-02-26T09:55:45;-0.60;99.90
41939;DHT22;23057;48.554;14.454;2023-02-26T09:58:24;-1.00;99.90
41939;DHT22;23057;48.554;14.454;2023-02-26T10:04:07;-1.20;99.90
41939;DHT22;23057;48.554;14.454;2023-02-26T10:10:00;-1.20;99.90
41939;DHT22;23057;48.554;14.454;2023-02-26T10:12:44;-1.20;99.90
41939;DHT22;23057;48.554;14.454;2023-02-26T10:15:20;-0.90;99.90
41939;DHT22;23057;48.554;14.454;2023-02-26T10:21:14;-0.30;99.90
41939;DHT22;23057;48.554;14.454;2023-02-26T10:23:59;-0.50;99.90
41939;DHT22;23057;48.554;14.454;2023-02-26T10:26:43;-0.60;99.90
41939;DHT22;23057;48.554;14.454;2023-02-26T10:29:23;-0.90;61.70
41939;DHT22;23057;48.554;14.454;2023-02-26T10:32:25;-0.90;99.90
41939;DHT22;23057;48.554;14.454;2023-02-26T10:35:11;-0.80;99.90
41939;DHT22;23057;48.554;14.454;2023-02-26T10:52:21;0.00;1.00
41939;DHT22;23057;48.554;14.454;2023-02-26T11:00:48;-0.10;99.90
41939;DHT22;23057;48.554;14.454;2023-02-26T11:03:28;-0.40;99.90
41939;DHT22;23057;48.554;14.454;2023-02-26T11:06:10;-0.30;99.90
41939;DHT22;23057;48.554;14.454;2023-02-26T11:08:54;0.10;99.90
41939;DHT22;23057;48.554;14.454;2023-02-26T11:12:03;0.00;99.90
41939;DHT22;23057;48.554;14.454;2023-02-26T11:14:42;-0.10;99.90
41939;DHT22;23057;48.554;14.454;2023-02-26T11:17:17;-0.50;99.90
41939;DHT22;23057;48.554;14.454;2023-02-26T11:20:03;-0.60;99.90
41939;DHT22;23057;48.554;14.454;2023-02-26T11:22:46;-0.80;99.90
41939;DHT22;23057;48.554;14.454;2023-02-26T11:25:26;-0.80;99.90
41939;DHT22;23057;48.554;14.454;2023-02-26T11:28:03;-0.80;99.90
41939;DHT22;23057;48.554;14.454;2023-02-26T11:30:54;-1.00;99.90
41939;DHT22;23057;48.554;14.454;2023-02-26T11:33:27;-1.20;99.90
41939;DHT22;23057;48.554;14.454;2023-02-26T11:36:08;-1.20;1.00
41939;DHT22;23057;48.554;14.454;2023-02-26T11:38:51;-1.00;99.90
41939;DHT22;23057;48.554;14.454;2023-02-26T11:41:25;-0.90;99.90
41939;DHT22;23057;48.554;14.454;2023-02-26T11:46:40;-0.20;99.90
41939;DHT22;23057;48.554;14.454;2023-02-26T11:49:16;-0.20;99.90
41939;DHT22;23057;48.554;14.454;2023-02-26T11:52:15;-0.20;99.90
41939;DHT22;23057;48.554;14.454;2023-02-26T11:55:17;-0.20;79.50
41939;DHT22;23057;48.554;14.454;2023-02-26T11:57:57;0.10;14.40
41939;DHT22;23057;48.554;14.454;2023-02-26T12:00:29;0.20;1.00
41939;DHT22;23057;48.554;14.454;2023-02-26T12:03:09;0.40;1.00
41939;DHT22;23057;48.554;14.454;2023-02-26T12:05:51;-0.10;1.00
41939;DHT22;23057;48.554;14.454;2023-02-26T12:11:29;-0.60;1.00
41939;DHT22;23057;48.554;14.454;2023-02-26T12:14:19;-0.60;1.00
41939;DHT22;23057;48.554;14.454;2023-02-26T12:20:53;-0.60;1.00
41939;DHT22;23057;48.554;14.454;2023-02-26T12:26:32;-0.80;1.00
41939;DHT22;23057;48.554;14.454;2023-02-26T12:29:26;-0.80;1.00
41939;DHT22;23057;48.554;14.454;2023-02-26T12:32:23;-0.70;1.00
41939;DHT22;23057;48.554;14.454;2023-02-26T12:35:32;-0.60;1.00
41939;DHT22;23057;48.554;14.454;2023-02-26T12:38:24;-0.10;1.00
41939;DHT22;23057;48.554;14.454;2023-02-26T12:49:59;0.90;99.90
41939;DHT22;23057;48.554;14.454;2023-02-26T12:55:21;-0.80;1.00
41939;DHT22;23057;48.554;14.454;2023-02-26T12:58:14;-0.70;1.00
41939;DHT22;23057;48.554;14.454;2023-02-26T13:01:23;-0.90;99.90
41939;DHT22;23057;48.554;14.454;2023-02-26T13:07:47;-1.20;1.00
41939;DHT22;23057;48.554;14.454;2023-02-26T13:17:26;-1.10;1.00
41939;DHT22;23057;48.554;14.454;2023-02-26T13:20:10;-0.90;1.00
41939;DHT22;23057;48.554;14.454;2023-02-26T13:22:49;-1.00;1.00
41939;DHT22;23057;48.554;14.454;2023-02-26T13:25:43;-1.20;1.00
41939;DHT22;23057;48.554;14.454;2023-02-26T13:31:30;-1.20;5.60
41939;DHT22;23057;48.554;14.454;2023-02-26T13:34:19;-1.30;97.30
41939;DHT22;23057;48.554;14.454;2023-02-26T13:52:26;-1.50;1.00
41939;DHT22;23057;48.554;14.454;2023-02-26T13:55:03;-1.20;99.90
41939;DHT22;23057;48.554;14.454;2023-02-26T14:00:28;-1.00;99.90
41939;DHT22;23057;48.554;14.454;2023-02-26T14:05:51;-1.00;99.90
41939;DHT22;23057;48.554;14.454;2023-02-26T14:14:05;-1.10;99.90
41939;DHT22;23057;48.554;14.454;2023-02-26T14:17:37;-1.10;99.90
41939;DHT22;23057;48.554;14.454;2023-02-26T14:19:43;-0.90;99.90
41939;DHT22;23057;48.554;14.454;2023-02-26T14:22:49;-1.00;99.90
41939;DHT22;23057;48.554;14.454;2023-02-26T14:25:38;-1.10;75.10
41939;DHT22;23057;48.554;14.454;2023-02-26T14:34:23;-0.40;8.70
41939;DHT22;23057;48.554;14.454;2023-02-26T14:42:05;-0.80;99.90
41939;DHT22;23057;48.554;14.454;2023-02-26T14:44:43;-0.80;1.00
41939;DHT22;23057;48.554;14.454;2023-02-26T14:47:19;-1.40;99.90
41939;DHT22;23057;48.554;14.454;2023-02-26T14:49:51;-1.60;25.30
41939;DHT22;23057;48.554;14.454;2023-02-26T14:52:35;-1.80;99.90
41939;DHT22;23057;48.554;14.454;2023-02-26T14:59:06;-1.90;99.90
41939;DHT22;23057;48.554;14.454;2023-02-26T15:11:22;-1.70;91.40
41939;DHT22;23057;48.554;14.454;2023-02-26T15:17:03;-1.50;99.90
41939;DHT22;23057;48.554;14.454;2023-02-26T15:25:37;-0.90;99.90
41939;DHT22;23057;48.554;14.454;2023-02-26T15:28:21;-0.90;36.40
41939;DHT22;23057;48.554;14.454;2023-02-26T15:31:00;-0.90;1.00
41939;DHT22;23057;48.554;14.454;2023-02-26T15:33:35;-0.80;1.00
41939;DHT22;23057;48.554;14.454;2023-02-26T15:36:08;-0.90;99.90
41939;DHT22;23057;48.554;14.454;2023-02-26T15:38:54;-1.00;99.90
41939;DHT22;23057;48.554;14.454;2023-02-26T15:41:29;-1.20;99.90
41939;DHT22;23057;48.554;14.454;2023-02-26T15:44:05;-1.30;99.90
41939;DHT22;23057;48.554;14.454;2023-02-26T15:46:41;-1.20;99.90
41939;DHT22;23057;48.554;14.454;2023-02-26T15:49:22;-1.10;99.90
41939;DHT22;23057;48.554;14.454;2023-02-26T15:52:03;-1.10;1.00
41939;DHT22;23057;48.554;14.454;2023-02-26T15:54:40;-1.30;1.00
41939;DHT22;23057;48.554;14.454;2023-02-26T15:57:17;-1.70;99.90
41939;DHT22;23057;48.554;14.454;2023-02-26T15:59:54;-1.90;1.00
41939;DHT22;23057;48.554;14.454;2023-02-26T16:02:37;-2.00;99.90
41939;DHT22;23057;48.554;14.454;2023-02-26T16:05:11;-2.10;99.90
41939;DHT22;23057;48.554;14.454;2023-02-26T16:07:43;-2.20;99.90
41939;DHT22;23057;48.554;14.454;2023-02-26T16:10:17;-2.10;99.90
41939;DHT22;23057;48.554;14.454;2023-02-26T16:12:57;-2.10;99.90
41939;DHT22;23057;48.554;14.454;2023-02-26T16:15:31;-2.10;99.90
41939;DHT22;23057;48.554;14.454;2023-02-26T16:18:17;-2.10;99.90
41939;DHT22;23057;48.554;14.454;2023-02-26T16:20:54;-2.10;99.90
41939;DHT22;23057;48.554;14.454;2023-02-26T16:23:42;-2.20;99.90
41939;DHT22;23057;48.554;14.454;2023-02-26T16:26:21;-2.20;99.90
41939;DHT22;23057;48.554;14.454;2023-02-26T16:29:00;-2.20;99.90
41939;DHT22;23057;48.554;14.454;2023-02-26T16:31:38;-2.20;99.90
41939;DHT22;23057;48.554;14.454;2023-02-26T16:43:03;-2.40;99.90
41939;DHT22;23057;48.554;14.454;2023-02-26T16:45:55;-2.50;99.90
41939;DHT22;23057;48.554;14.454;2023-02-26T16:48:38;-2.60;99.90
41939;DHT22;23057;48.554;14.454;2023-02-26T16:51:21;-2.60;99.90
41939;DHT22;23057;48.554;14.454;2023-02-26T16:53:59;-2.70;99.90
41939;DHT22;23057;48.554;14.454;2023-02-26T16:56:51;-2.70;99.90
41939;DHT22;23057;48.554;14.454;2023-02-26T16:59:56;-2.70;99.90
41939;DHT22;23057;48.554;14.454;2023-02-26T17:02:36;-2.70;99.90
41939;DHT22;23057;48.554;14.454;2023-02-26T17:05:14;-2.80;99.90
41939;DHT22;23057;48.554;14.454;2023-02-26T17:07:55;-2.80;99.90
41939;DHT22;23057;48.554;14.454;2023-02-26T17:10:45;-2.80;99.90
41939;DHT22;23057;48.554;14.454;2023-02-26T17:13:39;-2.90;99.90
41939;DHT22;23057;48.554;14.454;2023-02-26T17:16:11;-2.90;99.90
41939;DHT22;23057;48.554;14.454;2023-02-26T17:18:43;-3.00;99.90
41939;DHT22;23057;48.554;14.454;2023-02-26T17:21:14;-3.00;99.90
41939;DHT22;23057;48.554;14.454;2023-02-26T17:23:46;-3.00;99.90
41939;DHT22;23057;48.554;14.454;2023-02-26T17:26:17;-3.10;99.90
41939;DHT22;23057;48.554;14.454;2023-02-26T17:28:48;-3.10;99.90
41939;DHT22;23057;48.554;14.454;2023-02-26T17:31:19;-3.10;99.90
41939;DHT22;23057;48.554;14.454;2023-02-26T17:33:50;-3.10;99.90
41939;DHT22;23057;48.554;14.454;2023-02-26T17:36:21;-3.10;99.90
41939;DHT22;23057;48.554;14.454;2023-02-26T17:38:52;-3.10;99.90
41939;DHT22;23057;48.554;14.454;2023-02-26T17:41:23;-3.10;99.90
41939;DHT22;23057;48.554;14.454;2023-02-26T17:43:54;-3.10;99.90
41939;DHT22;23057;48.554;14.454;2023-02-26T17:46:24;-3.10;99.90
41939;DHT22;23057;48.554;14.454;2023-02-26T17:48:55;-3.00;99.90
41939;DHT22;23057;48.554;14.454;2023-02-26T17:51:26;-3.00;99.90
41939;DHT22;23057;48.554;14.454;2023-02-26T17:53:57;-3.10;99.90
41939;DHT22;23057;48.554;14.454;2023-02-26T17:56:29;-3.10;99.90
41939;DHT22;23057;48.554;14.454;2023-02-26T17:59:02;-3.10;99.90
41939;DHT22;23057;48.554;14.454;2023-02-26T18:01:34;-3.10;99.90
41939;DHT22;23057;48.554;14.454;2023-02-26T18:04:05;-3.10;99.90
41939;DHT22;23057;48.554;14.454;2023-02-26T18:06:36;-3.20;99.90
41939;DHT22;23057;48.554;14.454;2023-02-26T18:09:09;-3.20;99.90
41939;DHT22;23057;48.554;14.454;2023-02-26T18:11:42;-3.20;99.90
41939;DHT22;23057;48.554;14.454;2023-02-26T18:14:12;-3.10;99.90
41939;DHT22;23057;48.554;14.454;2023-02-26T18:16:43;-3.10;99.90
41939;DHT22;23057;48.554;14.454;2023-02-26T18:19:15;-3.10;99.90
41939;DHT22;23057;48.554;14.454;2023-02-26T18:21:46;-3.00;99.90
41939;DHT22;23057;48.554;14.454;2023-02-26T18:24:17;-3.00;99.90
41939;DHT22;23057;48.554;14.454;2023-02-26T18:26:47;-3.00;99.90
41939;DHT22;23057;48.554;14.454;2023-02-26T18:29:18;-2.90;99.90
41939;DHT22;23057;48.554;14.454;2023-02-26T18:31:50;-2.90;99.90
41939;DHT22;23057;48.554;14.454;2023-02-26T18:34:20;-2.90;99.90
41939;DHT22;23057;48.554;14.454;2023-02-26T18:36:51;-2.90;99.90
41939;DHT22;23057;48.554;14.454;2023-02-26T18:39:22;-2.90;99.90
41939;DHT22;23057;48.554;14.454;2023-02-26T18:41:56;-2.90;99.90
41939;DHT22;23057;48.554;14.454;2023-02-26T18:44:27;-2.90;99.90
41939;DHT22;23057;48.554;14.454;2023-02-26T18:46:58;-2.90;99.90
41939;DHT22;23057;48.554;14.454;2023-02-26T18:49:29;-2.80;99.90
41939;DHT22;23057;48.554;14.454;2023-02-26T18:52:00;-2.80;99.90
41939;DHT22;23057;48.554;14.454;2023-02-26T18:54:31;-2.80;99.90
41939;DHT22;23057;48.554;14.454;2023-02-26T18:57:02;-2.80;99.90
41939;DHT22;23057;48.554;14.454;2023-02-26T18:59:34;-2.90;99.90
41939;DHT22;23057;48.554;14.454;2023-02-26T19:02:06;-2.80;99.90
41939;DHT22;23057;48.554;14.454;2023-02-26T19:04:41;-2.80;99.90
41939;DHT22;23057;48.554;14.454;2023-02-26T19:07:11;-2.90;99.90
41939;DHT22;23057;48.554;14.454;2023-02-26T19:09:42;-2.80;99.90
41939;DHT22;23057;48.554;14.454;2023-02-26T19:12:13;-2.80;99.90
41939;DHT22;23057;48.554;14.454;2023-02-26T19:14:48;-2.80;99.90
41939;DHT22;23057;48.554;14.454;2023-02-26T19:17:19;-2.80;99.90
41939;DHT22;23057;48.554;14.454;2023-02-26T19:19:50;-2.90;99.90
41939;DHT22;23057;48.554;14.454;2023-02-26T19:22:21;-2.90;99.90
41939;DHT22;23057;48.554;14.454;2023-02-26T19:24:52;-2.90;99.90
41939;DHT22;23057;48.554;14.454;2023-02-26T19:27:23;-2.90;99.90
41939;DHT22;23057;48.554;14.454;2023-02-26T19:29:54;-2.90;99.90
41939;DHT22;23057;48.554;14.454;2023-02-26T19:32:25;-2.90;99.90
41939;DHT22;23057;48.554;14.454;2023-02-26T19:34:57;-2.80;99.90
41939;DHT22;23057;48.554;14.454;2023-02-26T19:37:28;-2.90;99.90